Terminal Aerodrome Forecast
Issued by NWS

Current Version | Previous Version | Text Only | Print | Product List | Glossary On
Versions: 1 2 3 4 5 6 7 8 9 10 11 12 13 14 15 16 17
000
FTUS46 KMTR 182000 AAB
TAFSJC
TAF AMD
KSJC 182039Z 1821/1918 15008G14KT P6SM VCSH FEW015 BKN050
     FM182300 20010G15KT P6SM SCT030 BKN050
     FM190200 25010G15KT P6SM SCT030 BKN050
     FM190500 29006KT P6SM SCT025
     FM190900 VRB03KT P6SM OVC015=

USA.gov is the U.S. government's official web portal to all federal, state and local government web resources and services.